sensor_id;sensor_type;location;lat;lon;timestamp;P1;durP1;ratioP1;P2;durP2;ratioP2
54464;SDS011;40374;49.480;20.016;2022-09-09T00:01:08;24.27;;;15.13;;
54464;SDS011;40374;49.480;20.016;2022-09-09T00:03:43;26.23;;;16.40;;
54464;SDS011;40374;49.480;20.016;2022-09-09T00:11:07;26.67;;;17.55;;
54464;SDS011;40374;49.480;20.016;2022-09-09T00:13:46;28.15;;;18.95;;
54464;SDS011;40374;49.480;20.016;2022-09-09T00:16:16;30.05;;;19.52;;
54464;SDS011;40374;49.480;20.016;2022-09-09T00:21:17;30.05;;;18.98;;
54464;SDS011;40374;49.480;20.016;2022-09-09T00:23:46;30.83;;;19.05;;
54464;SDS011;40374;49.480;20.016;2022-09-09T00:29:00;34.97;;;20.30;;
54464;SDS011;40374;49.480;20.016;2022-09-09T00:31:31;33.45;;;20.35;;
54464;SDS011;40374;49.480;20.016;2022-09-09T00:34:00;30.35;;;19.02;;
54464;SDS011;40374;49.480;20.016;2022-09-09T00:36:29;37.25;;;20.67;;
54464;SDS011;40374;49.480;20.016;2022-09-09T00:38:59;33.25;;;19.05;;
54464;SDS011;40374;49.480;20.016;2022-09-09T00:41:47;31.63;;;19.45;;
54464;SDS011;40374;49.480;20.016;2022-09-09T00:59:48;34.40;;;20.67;;
54464;SDS011;40374;49.480;20.016;2022-09-09T01:04:49;32.42;;;19.90;;
54464;SDS011;40374;49.480;20.016;2022-09-09T01:07:17;34.75;;;20.35;;
54464;SDS011;40374;49.480;20.016;2022-09-09T01:09:50;31.98;;;20.13;;
54464;SDS011;40374;49.480;20.016;2022-09-09T01:12:26;37.65;;;21.05;;
54464;SDS011;40374;49.480;20.016;2022-09-09T01:15:00;33.55;;;18.55;;
54464;SDS011;40374;49.480;20.016;2022-09-09T01:17:32;32.05;;;19.98;;
54464;SDS011;40374;49.480;20.016;2022-09-09T01:28:21;34.47;;;20.25;;
54464;SDS011;40374;49.480;20.016;2022-09-09T01:30:51;40.70;;;21.13;;
54464;SDS011;40374;49.480;20.016;2022-09-09T01:33:22;30.55;;;19.70;;
54464;SDS011;40374;49.480;20.016;2022-09-09T01:36:00;34.05;;;19.98;;
54464;SDS011;40374;49.480;20.016;2022-09-09T01:38:32;30.75;;;20.45;;
54464;SDS011;40374;49.480;20.016;2022-09-09T01:41:00;32.45;;;21.52;;
54464;SDS011;40374;49.480;20.016;2022-09-09T01:43:37;34.13;;;21.25;;
54464;SDS011;40374;49.480;20.016;2022-09-09T01:46:05;35.40;;;22.45;;
54464;SDS011;40374;49.480;20.016;2022-09-09T01:48:34;32.70;;;20.63;;
54464;SDS011;40374;49.480;20.016;2022-09-09T01:51:05;28.20;;;16.85;;
54464;SDS011;40374;49.480;20.016;2022-09-09T01:53:32;26.77;;;17.65;;
54464;SDS011;40374;49.480;20.016;2022-09-09T01:56:04;23.80;;;17.38;;
54464;SDS011;40374;49.480;20.016;2022-09-09T01:58:41;30.13;;;21.13;;
54464;SDS011;40374;49.480;20.016;2022-09-09T02:01:20;27.55;;;20.73;;
54464;SDS011;40374;49.480;20.016;2022-09-09T02:03:52;21.67;;;16.15;;
54464;SDS011;40374;49.480;20.016;2022-09-09T02:09:10;19.77;;;13.63;;
54464;SDS011;40374;49.480;20.016;2022-09-09T02:11:39;14.40;;;11.98;;
54464;SDS011;40374;49.480;20.016;2022-09-09T02:14:25;13.85;;;10.48;;
54464;SDS011;40374;49.480;20.016;2022-09-09T02:16:59;12.02;;;9.85;;
54464;SDS011;40374;49.480;20.016;2022-09-09T02:19:49;12.20;;;9.93;;
54464;SDS011;40374;49.480;20.016;2022-09-09T02:22:29;12.43;;;10.00;;
54464;SDS011;40374;49.480;20.016;2022-09-09T02:24:58;11.20;;;9.05;;
54464;SDS011;40374;49.480;20.016;2022-09-09T02:27:28;11.68;;;9.20;;
54464;SDS011;40374;49.480;20.016;2022-09-09T02:29:56;12.43;;;9.52;;
54464;SDS011;40374;49.480;20.016;2022-09-09T02:32:45;10.98;;;9.02;;
54464;SDS011;40374;49.480;20.016;2022-09-09T02:35:16;11.35;;;9.07;;
54464;SDS011;40374;49.480;20.016;2022-09-09T02:37:44;10.15;;;8.32;;
54464;SDS011;40374;49.480;20.016;2022-09-09T02:40:15;11.27;;;8.32;;
54464;SDS011;40374;49.480;20.016;2022-09-09T02:42:47;12.75;;;9.30;;
54464;SDS011;40374;49.480;20.016;2022-09-09T02:45:24;12.80;;;9.52;;
54464;SDS011;40374;49.480;20.016;2022-09-09T02:50:45;12.75;;;10.25;;
54464;SDS011;40374;49.480;20.016;2022-09-09T02:53:17;15.00;;;11.05;;
54464;SDS011;40374;49.480;20.016;2022-09-09T02:55:54;13.68;;;10.43;;
54464;SDS011;40374;49.480;20.016;2022-09-09T02:58:24;16.35;;;10.95;;
54464;SDS011;40374;49.480;20.016;2022-09-09T03:01:02;12.13;;;10.38;;
54464;SDS011;40374;49.480;20.016;2022-09-09T03:03:30;17.88;;;10.75;;
54464;SDS011;40374;49.480;20.016;2022-09-09T03:06:00;12.80;;;10.68;;
54464;SDS011;40374;49.480;20.016;2022-09-09T03:08:28;12.60;;;9.80;;
54464;SDS011;40374;49.480;20.016;2022-09-09T03:10:58;11.65;;;9.02;;
54464;SDS011;40374;49.480;20.016;2022-09-09T03:13:27;12.07;;;9.90;;
54464;SDS011;40374;49.480;20.016;2022-09-09T03:15:55;14.77;;;9.57;;
54464;SDS011;40374;49.480;20.016;2022-09-09T03:18:22;13.25;;;9.73;;
54464;SDS011;40374;49.480;20.016;2022-09-09T03:20:52;12.15;;;9.70;;
54464;SDS011;40374;49.480;20.016;2022-09-09T03:23:21;12.15;;;9.90;;
54464;SDS011;40374;49.480;20.016;2022-09-09T03:25:49;13.88;;;10.48;;
54464;SDS011;40374;49.480;20.016;2022-09-09T03:28:20;13.18;;;10.60;;
54464;SDS011;40374;49.480;20.016;2022-09-09T03:30:49;13.75;;;10.32;;
54464;SDS011;40374;49.480;20.016;2022-09-09T03:33:16;19.95;;;10.52;;
54464;SDS011;40374;49.480;20.016;2022-09-09T03:35:46;13.63;;;10.60;;
54464;SDS011;40374;49.480;20.016;2022-09-09T03:38:16;14.90;;;10.82;;
54464;SDS011;40374;49.480;20.016;2022-09-09T03:40:54;13.57;;;10.20;;
54464;SDS011;40374;49.480;20.016;2022-09-09T03:43:25;14.43;;;10.10;;
54464;SDS011;40374;49.480;20.016;2022-09-09T03:45:53;14.27;;;9.77;;
54464;SDS011;40374;49.480;20.016;2022-09-09T03:48:26;13.00;;;9.88;;
54464;SDS011;40374;49.480;20.016;2022-09-09T03:50:55;10.85;;;9.70;;
54464;SDS011;40374;49.480;20.016;2022-09-09T03:53:30;12.20;;;10.02;;
54464;SDS011;40374;49.480;20.016;2022-09-09T03:55:58;13.00;;;9.25;;
54464;SDS011;40374;49.480;20.016;2022-09-09T03:58:28;12.68;;;10.90;;
54464;SDS011;40374;49.480;20.016;2022-09-09T04:01:02;12.07;;;10.05;;
54464;SDS011;40374;49.480;20.016;2022-09-09T04:03:30;12.77;;;10.88;;
54464;SDS011;40374;49.480;20.016;2022-09-09T04:05:59;33.28;;;25.95;;
54464;SDS011;40374;49.480;20.016;2022-09-09T04:08:29;19.88;;;17.70;;
54464;SDS011;40374;49.480;20.016;2022-09-09T04:10:59;78.20;;;61.00;;
54464;SDS011;40374;49.480;20.016;2022-09-09T04:13:29;28.95;;;18.90;;
54464;SDS011;40374;49.480;20.016;2022-09-09T04:15:58;32.58;;;15.80;;
54464;SDS011;40374;49.480;20.016;2022-09-09T04:18:27;30.73;;;16.25;;
54464;SDS011;40374;49.480;20.016;2022-09-09T04:20:58;15.73;;;12.65;;
54464;SDS011;40374;49.480;20.016;2022-09-09T04:23:28;17.35;;;12.63;;
54464;SDS011;40374;49.480;20.016;2022-09-09T04:25:58;16.42;;;12.68;;
54464;SDS011;40374;49.480;20.016;2022-09-09T04:28:27;17.98;;;13.13;;
54464;SDS011;40374;49.480;20.016;2022-09-09T04:30:55;18.17;;;13.05;;
54464;SDS011;40374;49.480;20.016;2022-09-09T04:33:24;16.67;;;12.43;;
54464;SDS011;40374;49.480;20.016;2022-09-09T04:35:55;17.55;;;11.52;;
54464;SDS011;40374;49.480;20.016;2022-09-09T04:38:24;16.63;;;12.52;;
54464;SDS011;40374;49.480;20.016;2022-09-09T04:40:54;11.27;;;9.48;;
54464;SDS011;40374;49.480;20.016;2022-09-09T04:43:22;13.35;;;9.48;;
54464;SDS011;40374;49.480;20.016;2022-09-09T04:45:50;9.45;;;7.65;;
54464;SDS011;40374;49.480;20.016;2022-09-09T04:48:23;8.73;;;7.47;;
54464;SDS011;40374;49.480;20.016;2022-09-09T04:50:56;10.52;;;6.88;;
54464;SDS011;40374;49.480;20.016;2022-09-09T04:53:23;12.18;;;7.65;;
54464;SDS011;40374;49.480;20.016;2022-09-09T04:56:14;14.80;;;6.05;;
54464;SDS011;40374;49.480;20.016;2022-09-09T04:58:44;6.35;;;5.75;;
54464;SDS011;40374;49.480;20.016;2022-09-09T05:01:23;8.40;;;6.63;;
54464;SDS011;40374;49.480;20.016;2022-09-09T05:03:54;17.33;;;9.25;;
54464;SDS011;40374;49.480;20.016;2022-09-09T05:06:22;25.55;;;12.23;;
54464;SDS011;40374;49.480;20.016;2022-09-09T05:08:54;14.25;;;8.70;;
54464;SDS011;40374;49.480;20.016;2022-09-09T05:11:25;8.68;;;7.22;;
54464;SDS011;40374;49.480;20.016;2022-09-09T05:14:01;13.63;;;8.23;;
54464;SDS011;40374;49.480;20.016;2022-09-09T05:16:30;7.07;;;6.38;;
54464;SDS011;40374;49.480;20.016;2022-09-09T05:18:57;6.57;;;5.97;;
54464;SDS011;40374;49.480;20.016;2022-09-09T05:21:34;8.80;;;4.55;;
54464;SDS011;40374;49.480;20.016;2022-09-09T05:24:01;4.80;;;4.40;;
54464;SDS011;40374;49.480;20.016;2022-09-09T05:26:28;5.35;;;4.53;;
54464;SDS011;40374;49.480;20.016;2022-09-09T05:28:59;5.10;;;4.60;;
54464;SDS011;40374;49.480;20.016;2022-09-09T05:31:29;5.95;;;4.70;;
54464;SDS011;40374;49.480;20.016;2022-09-09T05:34:00;8.80;;;4.75;;
54464;SDS011;40374;49.480;20.016;2022-09-09T05:36:28;6.07;;;5.03;;
54464;SDS011;40374;49.480;20.016;2022-09-09T05:38:56;4.78;;;4.35;;
54464;SDS011;40374;49.480;20.016;2022-09-09T05:41:25;7.50;;;5.25;;
54464;SDS011;40374;49.480;20.016;2022-09-09T05:43:55;6.88;;;5.32;;
54464;SDS011;40374;49.480;20.016;2022-09-09T05:46:23;8.95;;;5.82;;
54464;SDS011;40374;49.480;20.016;2022-09-09T05:48:53;8.48;;;5.78;;
54464;SDS011;40374;49.480;20.016;2022-09-09T05:51:30;6.10;;;5.22;;
54464;SDS011;40374;49.480;20.016;2022-09-09T05:54:01;8.27;;;6.10;;
54464;SDS011;40374;49.480;20.016;2022-09-09T05:56:32;6.43;;;5.30;;
54464;SDS011;40374;49.480;20.016;2022-09-09T05:59:00;9.27;;;5.53;;
54464;SDS011;40374;49.480;20.016;2022-09-09T06:01:29;8.40;;;5.15;;
54464;SDS011;40374;49.480;20.016;2022-09-09T06:03:57;8.55;;;6.25;;
54464;SDS011;40374;49.480;20.016;2022-09-09T06:06:25;26.05;;;15.65;;
54464;SDS011;40374;49.480;20.016;2022-09-09T06:08:56;26.80;;;13.95;;
54464;SDS011;40374;49.480;20.016;2022-09-09T06:11:33;20.40;;;13.07;;
54464;SDS011;40374;49.480;20.016;2022-09-09T06:14:00;17.02;;;9.02;;
54464;SDS011;40374;49.480;20.016;2022-09-09T06:16:29;8.35;;;6.00;;
54464;SDS011;40374;49.480;20.016;2022-09-09T06:18:57;7.45;;;5.88;;
54464;SDS011;40374;49.480;20.016;2022-09-09T06:23:53;10.52;;;7.53;;
54464;SDS011;40374;49.480;20.016;2022-09-09T06:26:29;15.15;;;8.25;;
54464;SDS011;40374;49.480;20.016;2022-09-09T06:28:59;10.13;;;8.15;;
54464;SDS011;40374;49.480;20.016;2022-09-09T06:31:27;14.77;;;9.75;;
54464;SDS011;40374;49.480;20.016;2022-09-09T06:34:01;7.53;;;6.03;;
54464;SDS011;40374;49.480;20.016;2022-09-09T06:36:33;5.90;;;5.25;;
54464;SDS011;40374;49.480;20.016;2022-09-09T06:39:00;8.15;;;5.68;;
54464;SDS011;40374;49.480;20.016;2022-09-09T06:41:30;9.77;;;7.00;;
54464;SDS011;40374;49.480;20.016;2022-09-09T06:43:57;4.40;;;3.25;;
54464;SDS011;40374;49.480;20.016;2022-09-09T06:46:32;5.75;;;4.15;;
54464;SDS011;40374;49.480;20.016;2022-09-09T06:49:00;4.05;;;3.63;;
54464;SDS011;40374;49.480;20.016;2022-09-09T06:51:32;4.53;;;3.90;;
54464;SDS011;40374;49.480;20.016;2022-09-09T06:54:02;7.75;;;4.45;;
54464;SDS011;40374;49.480;20.016;2022-09-09T06:56:34;3.10;;;2.90;;
54464;SDS011;40374;49.480;20.016;2022-09-09T07:01:37;3.78;;;2.70;;
54464;SDS011;40374;49.480;20.016;2022-09-09T07:04:08;7.65;;;2.75;;
54464;SDS011;40374;49.480;20.016;2022-09-09T07:06:41;3.13;;;2.90;;
54464;SDS011;40374;49.480;20.016;2022-09-09T07:09:13;7.53;;;3.08;;
54464;SDS011;40374;49.480;20.016;2022-09-09T07:11:44;4.13;;;2.00;;
54464;SDS011;40374;49.480;20.016;2022-09-09T07:14:12;4.57;;;2.70;;
54464;SDS011;40374;49.480;20.016;2022-09-09T07:16:44;2.65;;;2.45;;
54464;SDS011;40374;49.480;20.016;2022-09-09T07:19:14;3.78;;;3.15;;
54464;SDS011;40374;49.480;20.016;2022-09-09T07:21:42;4.80;;;3.10;;
54464;SDS011;40374;49.480;20.016;2022-09-09T07:24:13;6.15;;;3.40;;
54464;SDS011;40374;49.480;20.016;2022-09-09T07:26:41;9.10;;;3.10;;
54464;SDS011;40374;49.480;20.016;2022-09-09T07:29:10;8.05;;;3.00;;
54464;SDS011;40374;49.480;20.016;2022-09-09T07:31:46;5.28;;;3.22;;
54464;SDS011;40374;49.480;20.016;2022-09-09T07:34:20;5.13;;;2.50;;
54464;SDS011;40374;49.480;20.016;2022-09-09T07:36:48;6.07;;;3.17;;
54464;SDS011;40374;49.480;20.016;2022-09-09T07:39:17;3.25;;;2.78;;
54464;SDS011;40374;49.480;20.016;2022-09-09T07:41:53;5.25;;;2.88;;
54464;SDS011;40374;49.480;20.016;2022-09-09T07:44:23;5.60;;;2.30;;
54464;SDS011;40374;49.480;20.016;2022-09-09T07:47:04;6.25;;;2.72;;
54464;SDS011;40374;49.480;20.016;2022-09-09T07:49:38;4.50;;;2.40;;
54464;SDS011;40374;49.480;20.016;2022-09-09T07:52:07;2.70;;;2.47;;
54464;SDS011;40374;49.480;20.016;2022-09-09T07:54:37;3.75;;;2.72;;
54464;SDS011;40374;49.480;20.016;2022-09-09T07:57:05;3.08;;;2.78;;
54464;SDS011;40374;49.480;20.016;2022-09-09T07:59:35;3.63;;;2.90;;
54464;SDS011;40374;49.480;20.016;2022-09-09T08:02:03;4.68;;;3.08;;
54464;SDS011;40374;49.480;20.016;2022-09-09T08:04:32;7.90;;;2.20;;
54464;SDS011;40374;49.480;20.016;2022-09-09T08:07:00;2.67;;;1.80;;
54464;SDS011;40374;49.480;20.016;2022-09-09T08:09:34;4.13;;;2.10;;
54464;SDS011;40374;49.480;20.016;2022-09-09T08:12:07;2.25;;;2.00;;
54464;SDS011;40374;49.480;20.016;2022-09-09T08:14:35;2.30;;;2.10;;
54464;SDS011;40374;49.480;20.016;2022-09-09T08:17:03;5.57;;;2.40;;
54464;SDS011;40374;49.480;20.016;2022-09-09T08:19:32;1.95;;;1.85;;
54464;SDS011;40374;49.480;20.016;2022-09-09T08:24:38;2.03;;;1.83;;
54464;SDS011;40374;49.480;20.016;2022-09-09T08:27:06;5.78;;;2.97;;
54464;SDS011;40374;49.480;20.016;2022-09-09T08:29:33;3.40;;;2.30;;
54464;SDS011;40374;49.480;20.016;2022-09-09T08:32:01;2.55;;;1.80;;
54464;SDS011;40374;49.480;20.016;2022-09-09T08:34:30;2.28;;;2.08;;
54464;SDS011;40374;49.480;20.016;2022-09-09T08:37:01;1.80;;;1.70;;
54464;SDS011;40374;49.480;20.016;2022-09-09T08:39:34;4.53;;;1.92;;
54464;SDS011;40374;49.480;20.016;2022-09-09T08:52:25;2.38;;;1.85;;
54464;SDS011;40374;49.480;20.016;2022-09-09T08:57:45;3.50;;;1.95;;
54464;SDS011;40374;49.480;20.016;2022-09-09T09:00:13;4.93;;;2.22;;
54464;SDS011;40374;49.480;20.016;2022-09-09T09:13:31;0.95;;;0.95;;
54464;SDS011;40374;49.480;20.016;2022-09-09T09:16:00;2.22;;;1.70;;
54464;SDS011;40374;49.480;20.016;2022-09-09T09:18:29;4.97;;;1.00;;
54464;SDS011;40374;49.480;20.016;2022-09-09T09:20:58;3.33;;;1.10;;
54464;SDS011;40374;49.480;20.016;2022-09-09T09:23:34;3.47;;;1.20;;
54464;SDS011;40374;49.480;20.016;2022-09-09T09:26:06;4.68;;;1.20;;
54464;SDS011;40374;49.480;20.016;2022-09-09T09:28:35;0.80;;;0.80;;
54464;SDS011;40374;49.480;20.016;2022-09-09T09:31:11;2.10;;;1.00;;
54464;SDS011;40374;49.480;20.016;2022-09-09T09:33:52;1.13;;;1.02;;
54464;SDS011;40374;49.480;20.016;2022-09-09T09:36:44;1.80;;;0.90;;
54464;SDS011;40374;49.480;20.016;2022-09-09T09:39:23;2.70;;;0.68;;
54464;SDS011;40374;49.480;20.016;2022-09-09T09:42:12;3.80;;;0.93;;
54464;SDS011;40374;49.480;20.016;2022-09-09T09:44:50;2.85;;;1.00;;
54464;SDS011;40374;49.480;20.016;2022-09-09T09:47:20;2.83;;;0.70;;
54464;SDS011;40374;49.480;20.016;2022-09-09T09:49:56;1.58;;;0.70;;
54464;SDS011;40374;49.480;20.016;2022-09-09T09:52:28;1.13;;;0.75;;
54464;SDS011;40374;49.480;20.016;2022-09-09T09:54:58;1.10;;;1.00;;
54464;SDS011;40374;49.480;20.016;2022-09-09T09:57:34;1.30;;;1.20;;
54464;SDS011;40374;49.480;20.016;2022-09-09T10:00:17;5.85;;;3.65;;
54464;SDS011;40374;49.480;20.016;2022-09-09T10:02:52;5.38;;;3.78;;
54464;SDS011;40374;49.480;20.016;2022-09-09T10:05:30;3.10;;;1.60;;
54464;SDS011;40374;49.480;20.016;2022-09-09T10:36:39;1.38;;;0.68;;
54464;SDS011;40374;49.480;20.016;2022-09-09T10:39:16;0.60;;;0.60;;
54464;SDS011;40374;49.480;20.016;2022-09-09T10:46:58;0.60;;;0.60;;
54464;SDS011;40374;49.480;20.016;2022-09-09T11:00:20;1.30;;;0.93;;
54464;SDS011;40374;49.480;20.016;2022-09-09T11:02:57;1.00;;;0.98;;
54464;SDS011;40374;49.480;20.016;2022-09-09T11:05:30;4.53;;;0.80;;
54464;SDS011;40374;49.480;20.016;2022-09-09T11:08:02;4.18;;;0.82;;
54464;SDS011;40374;49.480;20.016;2022-09-09T11:10:40;0.80;;;0.77;;
54464;SDS011;40374;49.480;20.016;2022-09-09T11:13:17;1.38;;;0.70;;
54464;SDS011;40374;49.480;20.016;2022-09-09T11:15:50;1.85;;;0.70;;
54464;SDS011;40374;49.480;20.016;2022-09-09T11:18:19;0.90;;;0.88;;
54464;SDS011;40374;49.480;20.016;2022-09-09T11:20:49;3.50;;;1.05;;
54464;SDS011;40374;49.480;20.016;2022-09-09T11:23:38;1.35;;;0.73;;
54464;SDS011;40374;49.480;20.016;2022-09-09T11:26:12;1.05;;;0.73;;
54464;SDS011;40374;49.480;20.016;2022-09-09T11:28:46;2.20;;;1.05;;
54464;SDS011;40374;49.480;20.016;2022-09-09T11:36:43;1.23;;;0.70;;
54464;SDS011;40374;49.480;20.016;2022-09-09T11:42:12;2.75;;;0.75;;
54464;SDS011;40374;49.480;20.016;2022-09-09T11:44:42;1.27;;;0.73;;
54464;SDS011;40374;49.480;20.016;2022-09-09T11:47:19;0.82;;;0.80;;
54464;SDS011;40374;49.480;20.016;2022-09-09T11:49:49;13.30;;;1.30;;
54464;SDS011;40374;49.480;20.016;2022-09-09T11:55:24;0.90;;;0.85;;
54464;SDS011;40374;49.480;20.016;2022-09-09T11:58:14;1.10;;;1.00;;
54464;SDS011;40374;49.480;20.016;2022-09-09T12:00:46;1.33;;;0.90;;
54464;SDS011;40374;49.480;20.016;2022-09-09T12:08:30;0.73;;;0.70;;
54464;SDS011;40374;49.480;20.016;2022-09-09T12:10:58;0.77;;;0.60;;
54464;SDS011;40374;49.480;20.016;2022-09-09T12:13:26;5.55;;;0.95;;
54464;SDS011;40374;49.480;20.016;2022-09-09T12:15:55;2.03;;;0.80;;
54464;SDS011;40374;49.480;20.016;2022-09-09T12:18:26;0.80;;;0.70;;
54464;SDS011;40374;49.480;20.016;2022-09-09T12:23:48;1.58;;;0.75;;
54464;SDS011;40374;49.480;20.016;2022-09-09T12:31:42;1.75;;;0.90;;
54464;SDS011;40374;49.480;20.016;2022-09-09T12:37:02;2.15;;;1.17;;
54464;SDS011;40374;49.480;20.016;2022-09-09T12:39:50;0.93;;;0.85;;
54464;SDS011;40374;49.480;20.016;2022-09-09T12:42:20;0.65;;;0.63;;
54464;SDS011;40374;49.480;20.016;2022-09-09T12:44:54;1.90;;;0.80;;
54464;SDS011;40374;49.480;20.016;2022-09-09T12:47:28;1.90;;;0.90;;
54464;SDS011;40374;49.480;20.016;2022-09-09T12:49:57;0.93;;;0.80;;
54464;SDS011;40374;49.480;20.016;2022-09-09T12:52:31;0.70;;;0.65;;
54464;SDS011;40374;49.480;20.016;2022-09-09T12:55:03;1.98;;;1.10;;
54464;SDS011;40374;49.480;20.016;2022-09-09T12:57:33;0.90;;;0.90;;
54464;SDS011;40374;49.480;20.016;2022-09-09T13:00:35;0.82;;;0.80;;
54464;SDS011;40374;49.480;20.016;2022-09-09T13:02:58;2.33;;;0.88;;
54464;SDS011;40374;49.480;20.016;2022-09-09T13:05:36;2.08;;;0.85;;
54464;SDS011;40374;49.480;20.016;2022-09-09T13:08:11;19.20;;;10.43;;
54464;SDS011;40374;49.480;20.016;2022-09-09T13:13:22;0.90;;;0.90;;
54464;SDS011;40374;49.480;20.016;2022-09-09T13:15:54;10.07;;;0.90;;
54464;SDS011;40374;49.480;20.016;2022-09-09T13:18:27;1.88;;;0.93;;
54464;SDS011;40374;49.480;20.016;2022-09-09T13:20:55;0.73;;;0.73;;
54464;SDS011;40374;49.480;20.016;2022-09-09T13:23:26;0.70;;;0.70;;
54464;SDS011;40374;49.480;20.016;2022-09-09T13:25:55;1.40;;;0.80;;
54464;SDS011;40374;49.480;20.016;2022-09-09T13:28:24;2.53;;;0.80;;
54464;SDS011;40374;49.480;20.016;2022-09-09T13:35:58;1.15;;;0.70;;
54464;SDS011;40374;49.480;20.016;2022-09-09T13:38:26;0.80;;;0.75;;
54464;SDS011;40374;49.480;20.016;2022-09-09T13:40:58;4.80;;;0.93;;
54464;SDS011;40374;49.480;20.016;2022-09-09T13:43:29;0.85;;;0.85;;
54464;SDS011;40374;49.480;20.016;2022-09-09T13:45:59;1.50;;;0.90;;
54464;SDS011;40374;49.480;20.016;2022-09-09T13:48:28;3.03;;;0.70;;
54464;SDS011;40374;49.480;20.016;2022-09-09T13:50:57;1.20;;;1.13;;
54464;SDS011;40374;49.480;20.016;2022-09-09T13:53:25;2.25;;;0.90;;
54464;SDS011;40374;49.480;20.016;2022-09-09T13:55:53;1.50;;;1.23;;
54464;SDS011;40374;49.480;20.016;2022-09-09T13:58:20;2.90;;;0.90;;
54464;SDS011;40374;49.480;20.016;2022-09-09T14:00:48;4.03;;;1.05;;
54464;SDS011;40374;49.480;20.016;2022-09-09T14:03:19;1.38;;;1.27;;
54464;SDS011;40374;49.480;20.016;2022-09-09T14:05:46;1.42;;;1.30;;
54464;SDS011;40374;49.480;20.016;2022-09-09T14:08:22;0.95;;;0.88;;
54464;SDS011;40374;49.480;20.016;2022-09-09T14:13:17;19.25;;;10.13;;
54464;SDS011;40374;49.480;20.016;2022-09-09T14:15:44;4.05;;;3.45;;
54464;SDS011;40374;49.480;20.016;2022-09-09T14:18:11;1.90;;;1.50;;
54464;SDS011;40374;49.480;20.016;2022-09-09T14:20:40;1.02;;;0.80;;
54464;SDS011;40374;49.480;20.016;2022-09-09T14:23:09;2.25;;;1.10;;
54464;SDS011;40374;49.480;20.016;2022-09-09T14:25:38;1.98;;;1.02;;
54464;SDS011;40374;49.480;20.016;2022-09-09T14:28:08;1.10;;;1.00;;
54464;SDS011;40374;49.480;20.016;2022-09-09T14:30:36;4.72;;;1.30;;
54464;SDS011;40374;49.480;20.016;2022-09-09T14:33:04;1.33;;;1.02;;
54464;SDS011;40374;49.480;20.016;2022-09-09T14:35:31;2.35;;;1.33;;
54464;SDS011;40374;49.480;20.016;2022-09-09T14:38:00;0.70;;;0.70;;
54464;SDS011;40374;49.480;20.016;2022-09-09T14:40:29;1.20;;;1.00;;
54464;SDS011;40374;49.480;20.016;2022-09-09T14:42:57;2.95;;;0.80;;
54464;SDS011;40374;49.480;20.016;2022-09-09T14:45:25;4.55;;;1.30;;
54464;SDS011;40374;49.480;20.016;2022-09-09T14:47:52;1.20;;;1.13;;
54464;SDS011;40374;49.480;20.016;2022-09-09T14:50:21;2.38;;;1.20;;
54464;SDS011;40374;49.480;20.016;2022-09-09T14:52:48;1.20;;;0.60;;
54464;SDS011;40374;49.480;20.016;2022-09-09T14:55:16;1.60;;;1.25;;
54464;SDS011;40374;49.480;20.016;2022-09-09T14:57:43;1.60;;;1.10;;
54464;SDS011;40374;49.480;20.016;2022-09-09T15:00:11;1.05;;;0.90;;
54464;SDS011;40374;49.480;20.016;2022-09-09T15:02:39;1.00;;;1.00;;
54464;SDS011;40374;49.480;20.016;2022-09-09T15:05:07;3.92;;;1.05;;
54464;SDS011;40374;49.480;20.016;2022-09-09T15:07:35;1.60;;;1.13;;
54464;SDS011;40374;49.480;20.016;2022-09-09T15:10:02;2.13;;;0.80;;
54464;SDS011;40374;49.480;20.016;2022-09-09T15:12:30;3.15;;;1.67;;
54464;SDS011;40374;49.480;20.016;2022-09-09T15:15:00;1.70;;;0.95;;
54464;SDS011;40374;49.480;20.016;2022-09-09T15:17:27;4.43;;;2.45;;
54464;SDS011;40374;49.480;20.016;2022-09-09T15:19:55;1.35;;;1.20;;
54464;SDS011;40374;49.480;20.016;2022-09-09T15:22:22;2.05;;;1.38;;
54464;SDS011;40374;49.480;20.016;2022-09-09T15:24:51;5.65;;;2.17;;
54464;SDS011;40374;49.480;20.016;2022-09-09T15:27:18;13.30;;;9.73;;
54464;SDS011;40374;49.480;20.016;2022-09-09T15:29:45;12.85;;;8.23;;
54464;SDS011;40374;49.480;20.016;2022-09-09T15:32:13;6.05;;;4.53;;
54464;SDS011;40374;49.480;20.016;2022-09-09T15:34:41;10.70;;;4.13;;
54464;SDS011;40374;49.480;20.016;2022-09-09T15:37:11;10.05;;;6.53;;
54464;SDS011;40374;49.480;20.016;2022-09-09T15:39:42;5.85;;;4.70;;
54464;SDS011;40374;49.480;20.016;2022-09-09T15:42:10;18.52;;;13.48;;
54464;SDS011;40374;49.480;20.016;2022-09-09T15:44:38;8.70;;;5.80;;
54464;SDS011;40374;49.480;20.016;2022-09-09T15:47:05;7.57;;;4.20;;
54464;SDS011;40374;49.480;20.016;2022-09-09T15:49:32;7.57;;;3.50;;
54464;SDS011;40374;49.480;20.016;2022-09-09T15:52:00;22.00;;;13.35;;
54464;SDS011;40374;49.480;20.016;2022-09-09T15:54:32;20.98;;;14.38;;
54464;SDS011;40374;49.480;20.016;2022-09-09T15:57:03;8.40;;;6.72;;
54464;SDS011;40374;49.480;20.016;2022-09-09T15:59:33;6.40;;;4.78;;
54464;SDS011;40374;49.480;20.016;2022-09-09T16:02:00;11.30;;;6.05;;
54464;SDS011;40374;49.480;20.016;2022-09-09T16:04:28;4.70;;;3.35;;
54464;SDS011;40374;49.480;20.016;2022-09-09T16:06:57;6.97;;;5.28;;
54464;SDS011;40374;49.480;20.016;2022-09-09T16:09:25;12.15;;;7.43;;
54464;SDS011;40374;49.480;20.016;2022-09-09T16:11:55;14.38;;;6.47;;
54464;SDS011;40374;49.480;20.016;2022-09-09T16:14:23;12.20;;;5.90;;
54464;SDS011;40374;49.480;20.016;2022-09-09T16:16:51;8.68;;;4.03;;
54464;SDS011;40374;49.480;20.016;2022-09-09T16:19:19;10.20;;;5.65;;
54464;SDS011;40374;49.480;20.016;2022-09-09T16:21:47;11.20;;;4.93;;
54464;SDS011;40374;49.480;20.016;2022-09-09T16:24:16;5.80;;;3.85;;
54464;SDS011;40374;49.480;20.016;2022-09-09T16:26:46;4.97;;;3.20;;
54464;SDS011;40374;49.480;20.016;2022-09-09T16:29:14;4.40;;;3.13;;
54464;SDS011;40374;49.480;20.016;2022-09-09T16:31:41;4.07;;;2.38;;
54464;SDS011;40374;49.480;20.016;2022-09-09T16:34:09;6.53;;;2.03;;
54464;SDS011;40374;49.480;20.016;2022-09-09T16:36:37;10.48;;;2.45;;
54464;SDS011;40374;49.480;20.016;2022-09-09T16:39:07;6.05;;;2.80;;
54464;SDS011;40374;49.480;20.016;2022-09-09T16:41:36;2.72;;;2.25;;
54464;SDS011;40374;49.480;20.016;2022-09-09T16:44:05;4.05;;;2.15;;
54464;SDS011;40374;49.480;20.016;2022-09-09T16:46:36;5.88;;;2.20;;
54464;SDS011;40374;49.480;20.016;2022-09-09T16:49:10;4.38;;;1.95;;
54464;SDS011;40374;49.480;20.016;2022-09-09T16:51:38;2.78;;;2.00;;
54464;SDS011;40374;49.480;20.016;2022-09-09T16:54:06;7.07;;;2.58;;
54464;SDS011;40374;49.480;20.016;2022-09-09T16:56:35;4.25;;;2.15;;
54464;SDS011;40374;49.480;20.016;2022-09-09T16:59:09;4.75;;;2.10;;
54464;SDS011;40374;49.480;20.016;2022-09-09T17:01:37;5.88;;;2.15;;
54464;SDS011;40374;49.480;20.016;2022-09-09T17:04:06;6.72;;;2.47;;
54464;SDS011;40374;49.480;20.016;2022-09-09T17:06:34;7.88;;;2.20;;
54464;SDS011;40374;49.480;20.016;2022-09-09T17:09:05;5.53;;;1.98;;
54464;SDS011;40374;49.480;20.016;2022-09-09T17:11:32;3.13;;;2.05;;
54464;SDS011;40374;49.480;20.016;2022-09-09T17:14:00;7.90;;;2.67;;
54464;SDS011;40374;49.480;20.016;2022-09-09T17:16:28;5.50;;;2.03;;
54464;SDS011;40374;49.480;20.016;2022-09-09T17:18:57;4.70;;;2.05;;
54464;SDS011;40374;49.480;20.016;2022-09-09T17:21:26;6.63;;;2.38;;
54464;SDS011;40374;49.480;20.016;2022-09-09T17:23:54;4.45;;;2.38;;